createdAt,value
2023-02-04T00:00:19.287Z,3.34
2023-02-04T00:02:45.864Z,3.33
2023-02-04T00:05:12.436Z,3.24
2023-02-04T00:07:40.502Z,3.25
2023-02-04T00:10:07.840Z,3.23
2023-02-04T00:12:34.559Z,3.23
2023-02-04T00:15:01.103Z,3.20
2023-02-04T00:17:27.536Z,3.26
2023-02-04T00:19:54.013Z,3.22
2023-02-04T00:22:21.211Z,3.18
2023-02-04T00:24:49.984Z,3.10
2023-02-04T00:27:16.535Z,3.15
2023-02-04T00:29:43.048Z,3.15
2023-02-04T00:32:09.621Z,3.11
2023-02-04T00:34:36.288Z,3.10
2023-02-04T00:37:02.806Z,3.05
2023-02-04T00:39:29.410Z,3.07
2023-02-04T00:41:55.863Z,3.07
2023-02-04T00:44:22.308Z,2.96
2023-02-04T00:46:48.831Z,2.90
2023-02-04T00:49:15.274Z,2.89
2023-02-04T00:51:46.441Z,2.86
2023-02-04T00:54:13.606Z,2.87
2023-02-04T00:56:40.066Z,2.86
2023-02-04T00:59:06.557Z,2.87
2023-02-04T01:01:33.087Z,2.88
2023-02-04T01:03:59.570Z,2.75
2023-02-04T01:06:26.072Z,2.74
2023-02-04T01:08:52.581Z,2.52
2023-02-04T01:11:19.470Z,1.91
2023-02-04T01:13:46.142Z,1.51
2023-02-04T01:16:12.948Z,1.59
2023-02-04T01:18:39.629Z,1.62
2023-02-04T01:21:06.484Z,1.49
2023-02-04T01:23:33.114Z,1.55
2023-02-04T01:26:00.351Z,1.59
2023-02-04T01:28:26.993Z,1.60
2023-02-04T01:30:53.670Z,1.44
2023-02-04T01:33:21.135Z,1.48
2023-02-04T01:35:47.755Z,1.41
2023-02-04T01:38:14.394Z,1.26
2023-02-04T01:40:41.515Z,1.15
2023-02-04T01:43:08.118Z,1.25
2023-02-04T01:45:35.771Z,1.34
2023-02-04T01:48:05.472Z,1.12
2023-02-04T01:50:32.438Z,1.09
2023-02-04T01:52:59.248Z,1.31
2023-02-04T01:55:28.256Z,1.40
2023-02-04T01:57:55.860Z,1.35
2023-02-04T02:00:30.894Z,1.32
2023-02-04T02:02:57.905Z,1.44
2023-02-04T02:05:31.887Z,1.42
2023-02-04T02:07:58.915Z,1.21
2023-02-04T02:10:25.546Z,1.53
2023-02-04T02:12:52.145Z,1.36
2023-02-04T02:15:19.637Z,1.29
2023-02-04T02:17:46.234Z,1.23
2023-02-04T02:20:14.985Z,1.27
2023-02-04T02:23:01.616Z,1.30
2023-02-04T02:25:28.228Z,1.29
2023-02-04T02:27:55.092Z,1.31
2023-02-04T02:30:21.767Z,1.26
2023-02-04T02:32:48.631Z,1.27
2023-02-04T02:35:15.259Z,1.42
2023-02-04T02:37:42.117Z,1.25
2023-02-04T02:40:09.258Z,1.33
2023-02-04T02:42:35.918Z,1.28
2023-02-04T02:45:05.749Z,1.40
2023-02-04T02:47:32.344Z,1.30
2023-02-04T02:49:59.001Z,1.44
2023-02-04T02:52:25.608Z,1.54
2023-02-04T02:54:53.699Z,1.34
2023-02-04T02:57:21.851Z,1.29
2023-02-04T02:59:48.573Z,1.26
2023-02-04T03:02:17.041Z,1.15
2023-02-04T03:04:45.876Z,1.24
2023-02-04T03:07:16.696Z,1.19
2023-02-04T03:13:56.470Z,1.01
2023-02-04T03:16:23.130Z,1.03
2023-02-04T03:18:49.756Z,1.02
2023-02-04T03:21:16.436Z,0.99
2023-02-04T03:23:43.060Z,1.08
2023-02-04T03:26:10.177Z,1.13
2023-02-04T03:28:41.007Z,1.06
2023-02-04T03:31:08.894Z,1.25
2023-02-04T03:33:35.987Z,1.27
2023-02-04T03:36:02.572Z,1.17
2023-02-04T03:38:29.282Z,1.06
2023-02-04T03:40:55.900Z,0.88
2023-02-04T03:43:22.550Z,0.93
2023-02-04T03:45:49.131Z,1.13
2023-02-04T03:48:15.775Z,0.90
2023-02-04T03:50:42.402Z,0.87
2023-02-04T03:53:09.122Z,1.00
2023-02-04T03:55:36.090Z,1.13
2023-02-04T03:58:03.599Z,0.94
2023-02-04T04:00:30.505Z,1.09
2023-02-04T04:02:57.556Z,1.03
2023-02-04T04:05:24.396Z,0.98
2023-02-04T04:07:51.187Z,0.89
2023-02-04T04:10:17.856Z,0.91
2023-02-04T04:12:44.591Z,1.13
2023-02-04T04:15:11.278Z,1.00
2023-02-04T04:17:37.966Z,1.12
2023-02-04T04:20:05.087Z,0.88
2023-02-04T04:22:31.816Z,1.01
2023-02-04T04:24:58.416Z,0.79
2023-02-04T04:27:26.039Z,0.95
2023-02-04T04:29:52.627Z,0.78
2023-02-04T04:32:19.340Z,0.97
2023-02-04T04:34:45.919Z,0.84
2023-02-04T04:37:12.576Z,0.99
2023-02-04T04:39:39.163Z,0.73
2023-02-04T04:42:05.889Z,0.82
2023-02-04T04:44:32.468Z,0.81
2023-02-04T04:46:59.103Z,0.69
2023-02-04T04:49:25.807Z,0.77
2023-02-04T04:51:52.402Z,0.85
2023-02-04T04:54:19.067Z,0.59
2023-02-04T04:56:45.645Z,0.58
2023-02-04T04:59:12.244Z,0.59
2023-02-04T05:01:39.083Z,0.59
2023-02-04T05:04:05.724Z,0.56
2023-02-04T05:06:32.358Z,0.54
2023-02-04T05:08:59.022Z,0.50
2023-02-04T05:11:25.606Z,0.47
2023-02-04T05:13:52.266Z,0.55
2023-02-04T05:16:18.903Z,0.51
2023-02-04T05:18:45.681Z,0.61
2023-02-04T05:21:12.258Z,0.58
2023-02-04T05:23:38.878Z,0.56
2023-02-04T05:26:05.686Z,0.47
2023-02-04T05:28:32.282Z,0.51
2023-02-04T05:30:58.884Z,0.52
2023-02-04T05:33:25.550Z,0.46
2023-02-04T05:35:52.161Z,0.44
2023-02-04T05:38:18.780Z,0.47
2023-02-04T05:40:45.366Z,0.39
2023-02-04T05:43:12.261Z,0.44
2023-02-04T05:45:38.921Z,0.31
2023-02-04T05:48:05.636Z,0.30
2023-02-04T05:50:32.545Z,0.36
2023-02-04T05:53:08.510Z,0.51
2023-02-04T05:55:35.101Z,0.48
2023-02-04T05:58:01.743Z,0.49
2023-02-04T06:00:28.370Z,0.47
2023-02-04T06:02:54.947Z,0.57
2023-02-04T06:05:23.123Z,0.58
2023-02-04T06:07:49.985Z,0.46
2023-02-04T06:10:16.855Z,0.29
2023-02-04T06:12:43.478Z,0.24
2023-02-04T06:15:10.799Z,0.40
2023-02-04T06:17:37.440Z,0.30
2023-02-04T06:20:04.528Z,0.20
2023-02-04T06:22:31.153Z,0.08
2023-02-04T06:24:57.779Z,0.06
2023-02-04T06:27:24.432Z,0.09
2023-02-04T06:29:51.600Z,0.15
2023-02-04T06:32:18.620Z,0.08
2023-02-04T06:34:45.291Z,0.19
2023-02-04T06:37:12.718Z,0.22
2023-02-04T06:39:39.536Z,0.18
2023-02-04T06:42:06.188Z,0.19
2023-02-04T06:44:32.814Z,0.08
2023-02-04T06:46:59.402Z,0.12
2023-02-04T06:49:26.009Z,0.35
2023-02-04T06:51:52.714Z,0.29
2023-02-04T06:54:19.303Z,0.02
2023-02-04T06:56:46.784Z,0.21
2023-02-04T06:59:13.382Z,0.07
2023-02-04T07:01:40.038Z,0.03
2023-02-04T07:04:06.631Z,-0.01
2023-02-04T07:06:33.229Z,0.08
2023-02-04T07:08:59.898Z,0.08
2023-02-04T07:11:26.487Z,0.18
2023-02-04T07:13:53.114Z,0.10
2023-02-04T07:16:19.735Z,0.06
2023-02-04T07:18:46.341Z,0.04
2023-02-04T07:21:12.948Z,-0.04
2023-02-04T07:23:39.601Z,-0.06
2023-02-04T07:26:06.187Z,-0.01
2023-02-04T07:28:32.761Z,0.13
2023-02-04T07:30:59.547Z,0.23
2023-02-04T07:33:26.220Z,0.11
2023-02-04T07:35:52.863Z,0.18
2023-02-04T07:38:19.446Z,0.08
2023-02-04T07:40:46.343Z,0.09
2023-02-04T07:43:13.304Z,0.33
2023-02-04T07:45:40.136Z,0.09
2023-02-04T07:48:06.722Z,0.17
2023-02-04T07:50:33.673Z,0.26
2023-02-04T07:53:00.417Z,-0.01
2023-02-04T07:55:27.082Z,0.11
2023-02-04T07:57:53.766Z,0.12
2023-02-04T08:00:20.564Z,0.07
2023-02-04T08:02:47.209Z,0.12
2023-02-04T08:05:13.964Z,0.05
2023-02-04T08:07:40.658Z,0.13
2023-02-04T08:10:07.906Z,0.10
2023-02-04T08:12:34.475Z,0.04
2023-02-04T08:15:01.426Z,0.12
2023-02-04T08:17:28.179Z,0.24
2023-02-04T08:19:54.813Z,0.15
2023-02-04T08:22:21.380Z,0.45
2023-02-04T08:24:47.964Z,0.12
2023-02-04T08:27:14.605Z,0.36
2023-02-04T08:29:41.213Z,0.33
2023-02-04T08:32:10.027Z,0.53
2023-02-04T08:34:36.955Z,0.29
2023-02-04T08:37:03.571Z,0.51
2023-02-04T08:39:30.217Z,0.25
2023-02-04T08:41:56.867Z,0.30
2023-02-04T08:44:23.550Z,0.35
2023-02-04T08:46:50.201Z,0.57
2023-02-04T08:49:16.868Z,0.56
2023-02-04T08:51:43.560Z,0.81
2023-02-04T08:54:10.162Z,0.57
2023-02-04T08:56:37.949Z,0.61
2023-02-04T08:59:04.727Z,0.54
2023-02-04T09:01:31.313Z,0.30
2023-02-04T09:03:57.890Z,0.34
2023-02-04T09:06:24.482Z,0.44
2023-02-04T09:08:51.082Z,0.23
2023-02-04T09:11:17.726Z,0.41
2023-02-04T09:13:44.462Z,0.44
2023-02-04T09:16:11.242Z,0.37
2023-02-04T09:18:37.865Z,0.47
2023-02-04T09:21:04.749Z,0.44
2023-02-04T09:23:31.396Z,0.69
2023-02-04T09:25:58.012Z,0.80
2023-02-04T09:28:24.618Z,0.98
2023-02-04T09:30:51.301Z,0.78
2023-02-04T09:33:17.952Z,1.55
2023-02-04T09:35:44.697Z,1.07
2023-02-04T09:38:11.280Z,0.84
2023-02-04T09:40:43.206Z,0.70
2023-02-04T09:43:12.793Z,1.14
2023-02-04T09:45:39.487Z,1.17
2023-02-04T09:48:06.221Z,0.63
2023-02-04T09:50:33.345Z,0.61
2023-02-04T09:53:21.533Z,0.98
2023-02-04T09:55:48.996Z,1.27
2023-02-04T09:58:20.506Z,1.08
2023-02-04T10:00:48.678Z,0.52
2023-02-04T10:03:17.140Z,0.94
2023-02-04T10:05:44.842Z,0.55
2023-02-04T10:08:22.276Z,0.76
2023-02-04T10:10:49.033Z,0.77
2023-02-04T10:13:21.276Z,1.06
2023-02-04T10:15:48.131Z,1.18
2023-02-04T10:18:24.209Z,1.04
2023-02-04T10:20:51.102Z,1.05
2023-02-04T10:23:17.676Z,1.40
2023-02-04T10:25:44.361Z,1.26
2023-02-04T10:28:11.087Z,1.09
2023-02-04T10:30:40.055Z,1.27
2023-02-04T10:33:24.737Z,1.19
2023-02-04T10:35:52.462Z,1.74
2023-02-04T10:38:18.974Z,1.30
2023-02-04T10:40:46.216Z,1.58
2023-02-04T10:43:15.603Z,1.38
2023-02-04T10:45:58.027Z,1.08
2023-02-04T10:48:24.606Z,1.17
2023-02-04T10:50:51.142Z,1.58
2023-02-04T10:53:39.748Z,1.19
2023-02-04T10:56:19.474Z,1.04
2023-02-04T10:58:45.908Z,1.21
2023-02-04T11:01:12.761Z,1.83
2023-02-04T11:03:39.660Z,2.33
2023-02-04T11:06:10.279Z,1.45
2023-02-04T11:08:36.941Z,1.64
2023-02-04T11:11:12.553Z,1.89
2023-02-04T11:13:42.185Z,1.58
2023-02-04T11:16:18.073Z,1.29
2023-02-04T11:18:48.578Z,1.67
2023-02-04T11:21:17.483Z,1.61
2023-02-04T11:23:45.575Z,1.45
2023-02-04T11:26:19.166Z,1.63
2023-02-04T11:28:49.870Z,1.17
2023-02-04T11:31:19.524Z,1.51
2023-02-04T11:33:46.169Z,1.43
2023-02-04T11:36:14.540Z,1.17
2023-02-04T11:38:47.443Z,1.22
2023-02-04T11:41:24.489Z,1.48
2023-02-04T11:43:51.548Z,1.22
2023-02-04T11:46:18.277Z,1.21
2023-02-04T11:48:44.868Z,1.28
2023-02-04T11:51:15.030Z,1.42
2023-02-04T11:53:41.543Z,1.39
2023-02-04T11:56:14.827Z,1.41
2023-02-04T11:58:42.079Z,1.25
2023-02-04T12:01:16.735Z,1.63
2023-02-04T12:03:46.547Z,1.76
2023-02-04T12:06:20.550Z,1.41
2023-02-04T12:08:46.985Z,2.00
2023-02-04T12:11:31.111Z,2.07
2023-02-04T12:13:58.327Z,2.39
2023-02-04T12:16:24.890Z,3.48
2023-02-04T12:18:51.416Z,3.16
2023-02-04T12:21:19.377Z,3.81
2023-02-04T12:23:45.914Z,3.18
2023-02-04T12:26:12.712Z,4.73
2023-02-04T12:28:39.384Z,2.93
2023-02-04T12:31:06.239Z,2.43
2023-02-04T12:33:33.077Z,2.52
2023-02-04T12:35:59.524Z,2.17
2023-02-04T12:38:27.707Z,2.14
2023-02-04T12:40:54.236Z,1.58
2023-02-04T12:43:20.854Z,2.02
2023-02-04T12:45:49.795Z,2.29
2023-02-04T12:48:16.609Z,2.06
2023-02-04T12:50:43.248Z,1.57
2023-02-04T12:53:09.861Z,1.96
2023-02-04T12:55:36.402Z,2.40
2023-02-04T12:58:02.860Z,2.88
2023-02-04T13:00:29.352Z,4.20
2023-02-04T13:02:55.981Z,4.17
2023-02-04T13:05:22.577Z,2.89
2023-02-04T13:07:49.174Z,4.33
2023-02-04T13:10:15.755Z,2.74
2023-02-04T13:12:42.517Z,2.68
2023-02-04T13:15:09.059Z,3.17
2023-02-04T13:17:35.625Z,3.72
2023-02-04T13:20:02.123Z,3.11
2023-02-04T13:22:28.616Z,3.56
2023-02-04T13:24:55.095Z,2.55
2023-02-04T13:27:21.693Z,2.72
2023-02-04T13:29:48.239Z,2.28
2023-02-04T13:32:14.724Z,2.33
2023-02-04T13:34:41.236Z,2.21
2023-02-04T13:37:07.767Z,2.29
2023-02-04T13:39:34.258Z,2.41
2023-02-04T13:42:00.714Z,2.30
2023-02-04T13:44:27.230Z,2.33
2023-02-04T13:46:53.721Z,2.18
2023-02-04T13:49:21.679Z,2.62
2023-02-04T13:51:48.118Z,2.51
2023-02-04T13:54:14.557Z,2.32
2023-02-04T13:56:41.290Z,2.26
2023-02-04T13:59:07.796Z,2.45
2023-02-04T14:01:34.278Z,2.30
2023-02-04T14:04:00.809Z,2.23
2023-02-04T14:06:33.261Z,1.98
2023-02-04T14:09:02.622Z,1.93
2023-02-04T14:11:29.112Z,2.18
2023-02-04T14:13:55.583Z,2.32
2023-02-04T14:16:22.078Z,2.25
2023-02-04T14:18:49.001Z,2.47
2023-02-04T14:21:15.429Z,2.57
2023-02-04T14:23:42.404Z,2.20
2023-02-04T14:26:09.506Z,1.97
2023-02-04T14:28:36.042Z,2.47
2023-02-04T14:31:02.555Z,2.23
2023-02-04T14:33:29.150Z,2.27
2023-02-04T14:35:55.654Z,2.25
2023-02-04T14:38:22.189Z,2.15
2023-02-04T14:40:48.966Z,2.01
2023-02-04T14:43:15.726Z,2.10
2023-02-04T14:45:42.321Z,2.00
2023-02-04T14:48:08.885Z,2.16
2023-02-04T14:50:35.726Z,2.06
2023-02-04T14:53:02.420Z,1.95
2023-02-04T14:55:28.900Z,2.44
2023-02-04T14:57:55.422Z,2.33
2023-02-04T15:00:21.915Z,2.20
2023-02-04T15:02:48.365Z,1.93
2023-02-04T15:05:15.244Z,1.94
2023-02-04T15:07:41.696Z,2.17
2023-02-04T15:10:08.513Z,2.04
2023-02-04T15:12:34.971Z,2.08
2023-02-04T15:15:01.431Z,2.01
2023-02-04T15:17:28.113Z,2.24
2023-02-04T15:19:54.624Z,1.95
2023-02-04T15:22:21.157Z,2.01
2023-02-04T15:24:48.266Z,1.82
2023-02-04T15:27:16.490Z,1.83
2023-02-04T15:29:42.992Z,1.84
2023-02-04T15:32:09.915Z,1.94
2023-02-04T15:34:36.948Z,1.98
2023-02-04T15:37:03.374Z,2.06
2023-02-04T15:39:30.001Z,1.93
2023-02-04T15:41:57.092Z,1.98
2023-02-04T15:44:34.850Z,2.06
2023-02-04T15:47:01.318Z,2.08
2023-02-04T15:49:27.901Z,2.13
2023-02-04T15:51:54.411Z,2.21
2023-02-04T15:54:20.952Z,2.03
2023-02-04T15:56:47.442Z,2.33
2023-02-04T15:59:15.599Z,1.98
2023-02-04T16:02:14.633Z,1.65
2023-02-04T16:04:41.648Z,1.62
2023-02-04T16:07:08.453Z,2.02
2023-02-04T16:09:35.272Z,1.99
2023-02-04T16:12:01.876Z,1.96
2023-02-04T16:14:28.415Z,1.17
2023-02-04T16:16:54.864Z,0.84
2023-02-04T16:19:21.440Z,1.02
2023-02-04T16:21:47.987Z,1.19
2023-02-04T16:24:16.157Z,1.18
2023-02-04T16:26:42.667Z,1.14
2023-02-04T16:29:09.244Z,1.13
2023-02-04T16:31:36.111Z,1.18
2023-02-04T16:34:02.656Z,1.41
2023-02-04T16:36:29.091Z,1.10
2023-02-04T16:38:55.796Z,1.27
2023-02-04T16:41:22.215Z,1.38
2023-02-04T16:43:48.764Z,1.22
2023-02-04T16:46:16.111Z,1.09
2023-02-04T16:48:42.646Z,1.23
2023-02-04T16:51:11.473Z,1.47
2023-02-04T16:53:38.172Z,1.04
2023-02-04T16:56:04.769Z,0.85
2023-02-04T16:58:31.364Z,0.60
2023-02-04T17:00:59.749Z,0.93
2023-02-04T17:03:27.222Z,0.97
2023-02-04T17:05:53.723Z,1.05
2023-02-04T17:08:20.281Z,1.17
2023-02-04T17:11:05.695Z,1.23
2023-02-04T17:13:32.393Z,1.41
2023-02-04T17:16:01.252Z,1.20
2023-02-04T17:18:31.144Z,1.24
2023-02-04T17:20:57.821Z,1.02
2023-02-04T17:23:24.340Z,1.10
2023-02-04T17:25:50.849Z,1.23
2023-02-04T17:28:17.494Z,1.13
2023-02-04T17:30:44.281Z,1.32
2023-02-04T17:33:10.777Z,1.08
2023-02-04T17:35:37.253Z,1.07
2023-02-04T17:38:03.782Z,1.02
2023-02-04T17:40:30.343Z,0.99
2023-02-04T17:42:56.853Z,0.88
2023-02-04T17:45:26.356Z,0.89
2023-02-04T17:47:52.874Z,0.84
2023-02-04T17:50:19.425Z,0.95
2023-02-04T17:52:45.983Z,0.87
2023-02-04T17:55:27.894Z,0.85
2023-02-04T17:57:54.572Z,0.69
2023-02-04T18:00:21.683Z,0.72
2023-02-04T18:02:49.032Z,0.64
2023-02-04T18:05:16.600Z,0.83
2023-02-04T18:07:45.032Z,0.53
2023-02-04T18:10:24.242Z,0.63
2023-02-04T18:12:50.749Z,0.14
2023-02-04T18:15:25.509Z,0.28
2023-02-04T18:17:52.895Z,0.23
2023-02-04T18:20:19.533Z,0.31
2023-02-04T18:22:45.995Z,0.03
2023-02-04T18:25:14.033Z,0.18
2023-02-04T18:27:40.547Z,-0.30
2023-02-04T18:30:12.986Z,-0.41
2023-02-04T18:32:39.748Z,-0.28
2023-02-04T18:35:24.841Z,0.06
2023-02-04T18:37:51.962Z,-0.19
2023-02-04T18:40:18.534Z,-0.39
2023-02-04T18:42:45.397Z,-0.42
2023-02-04T18:45:28.222Z,-0.50
2023-02-04T18:47:58.187Z,-0.77
2023-02-04T18:50:31.913Z,-0.78
2023-02-04T18:53:05.984Z,-1.00
2023-02-04T18:55:33.405Z,-0.35
2023-02-04T18:58:12.092Z,-0.46
2023-02-04T19:00:38.704Z,-0.93
2023-02-04T19:03:10.401Z,-1.25
2023-02-04T19:05:37.357Z,-1.11
2023-02-04T19:08:03.748Z,-1.05
2023-02-04T19:10:34.305Z,-0.77
2023-02-04T19:13:11.106Z,-0.53
2023-02-04T19:15:39.562Z,-0.99
2023-02-04T19:18:22.426Z,-0.91
2023-02-04T19:20:49.384Z,-0.76
2023-02-04T19:23:16.360Z,-1.25
2023-02-04T19:25:46.646Z,-1.12
2023-02-04T19:28:24.401Z,-1.23
2023-02-04T19:30:51.867Z,-1.14
2023-02-04T19:33:47.720Z,-1.32
2023-02-04T19:36:36.914Z,-1.35
2023-02-04T19:39:07.381Z,-1.47
2023-02-04T19:41:33.822Z,-1.63
2023-02-04T19:44:17.265Z,-1.97
2023-02-04T19:46:43.869Z,-1.88
2023-02-04T19:49:22.358Z,-2.08
2023-02-04T19:51:50.405Z,-1.98
2023-02-04T19:54:18.670Z,-1.78
2023-02-04T19:56:45.277Z,-1.70
2023-02-04T19:59:11.753Z,-1.49
2023-02-04T20:01:38.287Z,-1.70
2023-02-04T20:04:06.267Z,-1.61
2023-02-04T20:06:33.371Z,-1.61
2023-02-04T20:09:00.902Z,-1.69
2023-02-04T20:11:30.438Z,-1.56
2023-02-04T20:13:57.330Z,-1.70
2023-02-04T20:16:33.637Z,-2.41
2023-02-04T20:19:01.571Z,-1.99
2023-02-04T20:21:28.110Z,-1.77
2023-02-04T20:23:54.716Z,-1.91
2023-02-04T20:26:21.195Z,-1.83
2023-02-04T20:28:47.632Z,-2.10
2023-02-04T20:31:19.118Z,-1.63
2023-02-04T20:33:49.293Z,-1.72
2023-02-04T20:36:29.035Z,-1.64
2023-02-04T20:38:59.279Z,-2.08
2023-02-04T20:41:25.807Z,-1.69
2023-02-04T20:43:52.297Z,-1.77
2023-02-04T20:46:23.040Z,-1.55
2023-02-04T20:48:49.502Z,-1.72
2023-02-04T20:51:24.944Z,-1.38
2023-02-04T20:53:55.419Z,-1.31
2023-02-04T20:56:28.789Z,-1.53
2023-02-04T20:59:14.048Z,-1.44
2023-02-04T21:01:44.259Z,-1.50
2023-02-04T21:04:13.619Z,-1.45
2023-02-04T21:06:40.189Z,-1.28
2023-02-04T21:09:10.383Z,-0.95
2023-02-04T21:11:36.951Z,-0.76
2023-02-04T21:14:03.405Z,-1.07
2023-02-04T21:16:29.959Z,-1.03
2023-02-04T21:18:56.483Z,-1.43
2023-02-04T21:21:24.536Z,-1.31
2023-02-04T21:23:51.012Z,-1.27
2023-02-04T21:26:17.459Z,-1.36
2023-02-04T21:28:44.147Z,-1.34
2023-02-04T21:31:11.772Z,-1.02
2023-02-04T21:33:38.418Z,-1.41
2023-02-04T21:36:05.021Z,-1.27
2023-02-04T21:38:31.517Z,-1.23
2023-02-04T21:40:58.044Z,-1.35
2023-02-04T21:43:24.499Z,-1.76
2023-02-04T21:45:50.965Z,-1.45
2023-02-04T21:48:17.439Z,-1.46
2023-02-04T21:50:43.979Z,-1.51
2023-02-04T21:53:10.452Z,-1.22
2023-02-04T21:55:37.167Z,-1.39
2023-02-04T21:58:03.829Z,-1.25
2023-02-04T22:00:30.445Z,-1.36
2023-02-04T22:02:56.965Z,-1.29
2023-02-04T22:05:23.476Z,-1.13
2023-02-04T22:07:49.940Z,-1.03
2023-02-04T22:10:19.887Z,-1.36
2023-02-04T22:12:46.387Z,-1.33
2023-02-04T22:15:12.840Z,-1.19
2023-02-04T22:17:39.570Z,-1.59
2023-02-04T22:20:06.636Z,-1.60
2023-02-04T22:22:33.198Z,-1.80
2023-02-04T22:24:59.689Z,-1.50
2023-02-04T22:27:26.182Z,-1.57
2023-02-04T22:29:52.854Z,-1.29
2023-02-04T22:32:19.733Z,-1.33
2023-02-04T22:34:46.155Z,-1.28
2023-02-04T22:37:12.605Z,-1.10
2023-02-04T22:39:39.030Z,-1.36
2023-02-04T22:42:06.649Z,-1.26
2023-02-04T22:44:33.089Z,-1.23
2023-02-04T22:46:59.539Z,-1.19
2023-02-04T22:49:26.012Z,-1.15
2023-02-04T22:51:52.436Z,-1.24
2023-02-04T22:54:18.981Z,-1.46
2023-02-04T22:56:45.423Z,-1.79
2023-02-04T22:59:11.938Z,-1.64
2023-02-04T23:01:38.483Z,-1.39
2023-02-04T23:04:05.263Z,-1.16
2023-02-04T23:06:31.727Z,-1.28
2023-02-04T23:08:58.212Z,-1.22
2023-02-04T23:11:24.886Z,-1.35
2023-02-04T23:13:51.393Z,-1.41
2023-02-04T23:16:19.039Z,-1.24
2023-02-04T23:18:45.797Z,-1.38
2023-02-04T23:21:12.760Z,-1.05
2023-02-04T23:23:39.422Z,-1.04
2023-02-04T23:26:05.889Z,-1.51
2023-02-04T23:28:32.443Z,-1.46
2023-02-04T23:30:58.922Z,-1.17
2023-02-04T23:33:25.389Z,-1.28
2023-02-04T23:35:51.832Z,-1.64
2023-02-04T23:38:18.311Z,-1.35
2023-02-04T23:40:44.752Z,-1.25
2023-02-04T23:43:11.227Z,-1.38
2023-02-04T23:45:37.833Z,-1.44
2023-02-04T23:48:04.533Z,-1.13
2023-02-04T23:50:30.964Z,-0.94
2023-02-04T23:52:57.410Z,-1.14
2023-02-04T23:55:24.152Z,-1.40
2023-02-04T23:57:50.736Z,-1.28
